sensor_id;sensor_type;location;lat;lon;timestamp;P1;durP1;ratioP1;P2;durP2;ratioP2
69527;SDS011;57136;51.986;4.468;2022-09-09T00:00:24;9.43;;;6.25;;
69527;SDS011;57136;51.986;4.468;2022-09-09T00:02:54;10.15;;;5.60;;
69527;SDS011;57136;51.986;4.468;2022-09-09T00:06:06;10.43;;;6.13;;
69527;SDS011;57136;51.986;4.468;2022-09-09T00:09:08;8.50;;;5.28;;
69527;SDS011;57136;51.986;4.468;2022-09-09T00:11:16;10.15;;;5.72;;
69527;SDS011;57136;51.986;4.468;2022-09-09T00:13:51;11.00;;;6.50;;
69527;SDS011;57136;51.986;4.468;2022-09-09T00:21:30;10.85;;;6.25;;
69527;SDS011;57136;51.986;4.468;2022-09-09T00:24:00;10.97;;;6.90;;
69527;SDS011;57136;51.986;4.468;2022-09-09T00:26:36;9.85;;;6.82;;
69527;SDS011;57136;51.986;4.468;2022-09-09T00:31:36;12.45;;;7.18;;
69527;SDS011;57136;51.986;4.468;2022-09-09T00:34:09;15.95;;;7.20;;
69527;SDS011;57136;51.986;4.468;2022-09-09T00:36:38;10.98;;;6.75;;
69527;SDS011;57136;51.986;4.468;2022-09-09T00:39:05;10.95;;;7.90;;
69527;SDS011;57136;51.986;4.468;2022-09-09T00:41:55;12.50;;;7.40;;
69527;SDS011;57136;51.986;4.468;2022-09-09T00:47:04;11.80;;;7.45;;
69527;SDS011;57136;51.986;4.468;2022-09-09T00:49:49;13.98;;;8.45;;
69527;SDS011;57136;51.986;4.468;2022-09-09T00:58:08;11.77;;;7.97;;
69527;SDS011;57136;51.986;4.468;2022-09-09T01:03:26;11.75;;;7.05;;
69527;SDS011;57136;51.986;4.468;2022-09-09T01:06:12;12.82;;;7.13;;
69527;SDS011;57136;51.986;4.468;2022-09-09T01:12:01;14.32;;;6.00;;
69527;SDS011;57136;51.986;4.468;2022-09-09T01:17:03;10.07;;;6.75;;
69527;SDS011;57136;51.986;4.468;2022-09-09T01:25:19;9.40;;;5.20;;
69527;SDS011;57136;51.986;4.468;2022-09-09T01:28:16;7.93;;;5.10;;
69527;SDS011;57136;51.986;4.468;2022-09-09T01:30:47;8.05;;;5.15;;
69527;SDS011;57136;51.986;4.468;2022-09-09T01:33:14;8.48;;;4.70;;
69527;SDS011;57136;51.986;4.468;2022-09-09T01:36:00;8.98;;;4.35;;
69527;SDS011;57136;51.986;4.468;2022-09-09T01:38:32;8.18;;;4.43;;
69527;SDS011;57136;51.986;4.468;2022-09-09T01:40:59;5.80;;;4.07;;
69527;SDS011;57136;51.986;4.468;2022-09-09T01:43:24;9.00;;;3.58;;
69527;SDS011;57136;51.986;4.468;2022-09-09T01:45:51;8.52;;;3.70;;
69527;SDS011;57136;51.986;4.468;2022-09-09T01:48:19;6.18;;;3.70;;
69527;SDS011;57136;51.986;4.468;2022-09-09T01:50:47;5.55;;;3.30;;
69527;SDS011;57136;51.986;4.468;2022-09-09T01:53:12;8.80;;;4.18;;
69527;SDS011;57136;51.986;4.468;2022-09-09T01:55:40;5.90;;;3.30;;
69527;SDS011;57136;51.986;4.468;2022-09-09T02:03:33;5.10;;;3.28;;
69527;SDS011;57136;51.986;4.468;2022-09-09T02:06:11;13.32;;;2.90;;
69527;SDS011;57136;51.986;4.468;2022-09-09T02:08:50;6.85;;;2.95;;
69527;SDS011;57136;51.986;4.468;2022-09-09T02:11:19;4.80;;;2.20;;
69527;SDS011;57136;51.986;4.468;2022-09-09T02:13:47;6.05;;;2.45;;
69527;SDS011;57136;51.986;4.468;2022-09-09T02:19:09;5.53;;;2.47;;
69527;SDS011;57136;51.986;4.468;2022-09-09T02:21:37;6.22;;;2.25;;
69527;SDS011;57136;51.986;4.468;2022-09-09T02:24:04;4.38;;;2.17;;
69527;SDS011;57136;51.986;4.468;2022-09-09T02:26:34;6.13;;;2.40;;
69527;SDS011;57136;51.986;4.468;2022-09-09T02:29:08;4.65;;;2.13;;
69527;SDS011;57136;51.986;4.468;2022-09-09T02:31:39;4.00;;;2.27;;
69527;SDS011;57136;51.986;4.468;2022-09-09T02:34:06;7.70;;;2.30;;
69527;SDS011;57136;51.986;4.468;2022-09-09T02:36:36;4.90;;;2.42;;
69527;SDS011;57136;51.986;4.468;2022-09-09T02:39:04;6.53;;;2.53;;
69527;SDS011;57136;51.986;4.468;2022-09-09T02:41:33;6.45;;;2.35;;
69527;SDS011;57136;51.986;4.468;2022-09-09T02:44:00;7.35;;;2.60;;
69527;SDS011;57136;51.986;4.468;2022-09-09T02:49:08;7.93;;;3.10;;
69527;SDS011;57136;51.986;4.468;2022-09-09T02:54:27;11.13;;;3.40;;
69527;SDS011;57136;51.986;4.468;2022-09-09T02:57:00;6.10;;;3.00;;
69527;SDS011;57136;51.986;4.468;2022-09-09T02:59:31;8.60;;;3.13;;
69527;SDS011;57136;51.986;4.468;2022-09-09T03:01:57;6.10;;;3.08;;
69527;SDS011;57136;51.986;4.468;2022-09-09T03:04:22;6.32;;;3.47;;
69527;SDS011;57136;51.986;4.468;2022-09-09T03:06:49;6.63;;;3.22;;
69527;SDS011;57136;51.986;4.468;2022-09-09T03:09:15;6.85;;;3.47;;
69527;SDS011;57136;51.986;4.468;2022-09-09T03:11:40;6.93;;;3.42;;
69527;SDS011;57136;51.986;4.468;2022-09-09T03:14:06;9.52;;;3.40;;
69527;SDS011;57136;51.986;4.468;2022-09-09T03:16:31;8.20;;;3.55;;
69527;SDS011;57136;51.986;4.468;2022-09-09T03:18:58;12.05;;;4.43;;
69527;SDS011;57136;51.986;4.468;2022-09-09T03:21:23;7.60;;;3.53;;
69527;SDS011;57136;51.986;4.468;2022-09-09T03:23:49;5.75;;;3.13;;
69527;SDS011;57136;51.986;4.468;2022-09-09T03:26:14;7.35;;;3.50;;
69527;SDS011;57136;51.986;4.468;2022-09-09T03:28:41;6.50;;;3.45;;
69527;SDS011;57136;51.986;4.468;2022-09-09T03:31:07;5.45;;;3.08;;
69527;SDS011;57136;51.986;4.468;2022-09-09T03:33:35;7.35;;;3.03;;
69527;SDS011;57136;51.986;4.468;2022-09-09T03:36:01;6.35;;;2.90;;
69527;SDS011;57136;51.986;4.468;2022-09-09T03:38:27;5.00;;;2.38;;
69527;SDS011;57136;51.986;4.468;2022-09-09T03:40:54;5.30;;;2.80;;
69527;SDS011;57136;51.986;4.468;2022-09-09T03:43:24;7.22;;;3.13;;
69527;SDS011;57136;51.986;4.468;2022-09-09T03:45:50;9.18;;;2.47;;
69527;SDS011;57136;51.986;4.468;2022-09-09T03:48:16;4.70;;;2.25;;
69527;SDS011;57136;51.986;4.468;2022-09-09T03:50:49;6.40;;;2.45;;
69527;SDS011;57136;51.986;4.468;2022-09-09T03:53:16;5.95;;;2.25;;
69527;SDS011;57136;51.986;4.468;2022-09-09T03:55:46;4.70;;;2.38;;
69527;SDS011;57136;51.986;4.468;2022-09-09T03:58:13;8.30;;;2.63;;
69527;SDS011;57136;51.986;4.468;2022-09-09T04:00:39;6.68;;;2.35;;
69527;SDS011;57136;51.986;4.468;2022-09-09T04:03:09;7.47;;;2.80;;
69527;SDS011;57136;51.986;4.468;2022-09-09T04:05:35;7.65;;;2.72;;
69527;SDS011;57136;51.986;4.468;2022-09-09T04:08:04;6.15;;;2.40;;
69527;SDS011;57136;51.986;4.468;2022-09-09T04:10:30;8.15;;;2.78;;
69527;SDS011;57136;51.986;4.468;2022-09-09T04:12:56;7.93;;;2.60;;
69527;SDS011;57136;51.986;4.468;2022-09-09T04:15:21;8.85;;;2.97;;
69527;SDS011;57136;51.986;4.468;2022-09-09T04:17:47;5.32;;;2.10;;
69527;SDS011;57136;51.986;4.468;2022-09-09T04:20:12;6.53;;;2.13;;
69527;SDS011;57136;51.986;4.468;2022-09-09T04:22:37;7.55;;;3.63;;
69527;SDS011;57136;51.986;4.468;2022-09-09T04:25:04;5.78;;;2.33;;
69527;SDS011;57136;51.986;4.468;2022-09-09T04:27:30;10.07;;;2.80;;
69527;SDS011;57136;51.986;4.468;2022-09-09T04:29:56;4.75;;;2.10;;
69527;SDS011;57136;51.986;4.468;2022-09-09T04:32:22;10.52;;;2.35;;
69527;SDS011;57136;51.986;4.468;2022-09-09T04:34:47;6.20;;;2.40;;
69527;SDS011;57136;51.986;4.468;2022-09-09T04:37:13;7.63;;;2.72;;
69527;SDS011;57136;51.986;4.468;2022-09-09T04:39:39;4.70;;;2.42;;
69527;SDS011;57136;51.986;4.468;2022-09-09T04:42:04;9.15;;;2.85;;
69527;SDS011;57136;51.986;4.468;2022-09-09T04:44:29;4.97;;;2.28;;
69527;SDS011;57136;51.986;4.468;2022-09-09T04:46:55;5.57;;;2.40;;
69527;SDS011;57136;51.986;4.468;2022-09-09T04:49:21;5.47;;;2.30;;
69527;SDS011;57136;51.986;4.468;2022-09-09T04:51:48;4.93;;;2.40;;
69527;SDS011;57136;51.986;4.468;2022-09-09T04:54:14;5.45;;;2.40;;
69527;SDS011;57136;51.986;4.468;2022-09-09T04:56:39;9.88;;;3.03;;
69527;SDS011;57136;51.986;4.468;2022-09-09T04:59:06;9.50;;;2.88;;
69527;SDS011;57136;51.986;4.468;2022-09-09T05:01:31;5.53;;;2.58;;
69527;SDS011;57136;51.986;4.468;2022-09-09T05:03:57;7.50;;;3.10;;
69527;SDS011;57136;51.986;4.468;2022-09-09T05:06:23;6.97;;;3.47;;
69527;SDS011;57136;51.986;4.468;2022-09-09T05:08:48;8.02;;;2.88;;
69527;SDS011;57136;51.986;4.468;2022-09-09T05:11:17;8.43;;;3.20;;
69527;SDS011;57136;51.986;4.468;2022-09-09T05:13:45;10.20;;;3.33;;
69527;SDS011;57136;51.986;4.468;2022-09-09T05:16:11;11.63;;;3.22;;
69527;SDS011;57136;51.986;4.468;2022-09-09T05:18:38;7.43;;;3.42;;
69527;SDS011;57136;51.986;4.468;2022-09-09T05:21:04;8.20;;;3.17;;
69527;SDS011;57136;51.986;4.468;2022-09-09T05:23:30;7.93;;;2.72;;
69527;SDS011;57136;51.986;4.468;2022-09-09T05:25:56;8.85;;;3.42;;
69527;SDS011;57136;51.986;4.468;2022-09-09T05:28:23;5.75;;;2.65;;
69527;SDS011;57136;51.986;4.468;2022-09-09T05:30:57;6.90;;;3.25;;
69527;SDS011;57136;51.986;4.468;2022-09-09T05:33:29;6.10;;;3.08;;
69527;SDS011;57136;51.986;4.468;2022-09-09T05:35:56;8.57;;;2.95;;
69527;SDS011;57136;51.986;4.468;2022-09-09T05:38:22;8.98;;;2.78;;
69527;SDS011;57136;51.986;4.468;2022-09-09T05:40:50;7.97;;;3.15;;
69527;SDS011;57136;51.986;4.468;2022-09-09T05:43:17;7.35;;;2.70;;
69527;SDS011;57136;51.986;4.468;2022-09-09T05:45:42;7.18;;;2.53;;
69527;SDS011;57136;51.986;4.468;2022-09-09T05:48:07;6.47;;;2.90;;
69527;SDS011;57136;51.986;4.468;2022-09-09T05:50:33;7.15;;;2.53;;
69527;SDS011;57136;51.986;4.468;2022-09-09T05:52:58;10.80;;;3.15;;
69527;SDS011;57136;51.986;4.468;2022-09-09T05:55:24;8.27;;;2.47;;
69527;SDS011;57136;51.986;4.468;2022-09-09T05:57:50;8.55;;;2.70;;
69527;SDS011;57136;51.986;4.468;2022-09-09T06:00:16;7.43;;;3.13;;
69527;SDS011;57136;51.986;4.468;2022-09-09T06:02:42;7.10;;;2.30;;
69527;SDS011;57136;51.986;4.468;2022-09-09T06:05:07;10.07;;;3.00;;
69527;SDS011;57136;51.986;4.468;2022-09-09T06:07:33;5.80;;;2.30;;
69527;SDS011;57136;51.986;4.468;2022-09-09T06:09:58;6.60;;;2.75;;
69527;SDS011;57136;51.986;4.468;2022-09-09T06:12:25;7.03;;;2.38;;
69527;SDS011;57136;51.986;4.468;2022-09-09T06:14:50;7.30;;;2.90;;
69527;SDS011;57136;51.986;4.468;2022-09-09T06:17:16;7.32;;;2.40;;
69527;SDS011;57136;51.986;4.468;2022-09-09T06:19:42;11.27;;;2.90;;
69527;SDS011;57136;51.986;4.468;2022-09-09T06:22:07;10.52;;;2.53;;
69527;SDS011;57136;51.986;4.468;2022-09-09T06:24:34;10.45;;;2.97;;
69527;SDS011;57136;51.986;4.468;2022-09-09T06:26:59;5.95;;;2.42;;
69527;SDS011;57136;51.986;4.468;2022-09-09T06:29:25;6.30;;;2.28;;
69527;SDS011;57136;51.986;4.468;2022-09-09T06:31:50;8.20;;;2.42;;
69527;SDS011;57136;51.986;4.468;2022-09-09T06:34:15;10.68;;;2.88;;
69527;SDS011;57136;51.986;4.468;2022-09-09T06:36:41;6.80;;;2.75;;
69527;SDS011;57136;51.986;4.468;2022-09-09T06:39:06;6.15;;;2.63;;
69527;SDS011;57136;51.986;4.468;2022-09-09T06:41:33;9.70;;;3.00;;
69527;SDS011;57136;51.986;4.468;2022-09-09T06:43:59;6.88;;;2.63;;
69527;SDS011;57136;51.986;4.468;2022-09-09T06:46:25;8.73;;;3.10;;
69527;SDS011;57136;51.986;4.468;2022-09-09T06:48:53;8.07;;;3.17;;
69527;SDS011;57136;51.986;4.468;2022-09-09T06:51:24;7.95;;;2.92;;
69527;SDS011;57136;51.986;4.468;2022-09-09T06:53:51;8.27;;;3.13;;
69527;SDS011;57136;51.986;4.468;2022-09-09T06:56:25;5.63;;;3.08;;
69527;SDS011;57136;51.986;4.468;2022-09-09T06:58:53;8.38;;;3.40;;
69527;SDS011;57136;51.986;4.468;2022-09-09T07:01:23;12.02;;;3.17;;
69527;SDS011;57136;51.986;4.468;2022-09-09T07:03:51;6.93;;;3.45;;
69527;SDS011;57136;51.986;4.468;2022-09-09T07:06:20;8.32;;;3.60;;
69527;SDS011;57136;51.986;4.468;2022-09-09T07:08:51;7.63;;;3.22;;
69527;SDS011;57136;51.986;4.468;2022-09-09T07:11:19;8.25;;;3.30;;
69527;SDS011;57136;51.986;4.468;2022-09-09T07:13:46;9.48;;;3.60;;
69527;SDS011;57136;51.986;4.468;2022-09-09T07:16:13;11.80;;;4.40;;
69527;SDS011;57136;51.986;4.468;2022-09-09T07:18:40;7.60;;;3.50;;
69527;SDS011;57136;51.986;4.468;2022-09-09T07:21:06;8.98;;;4.00;;
69527;SDS011;57136;51.986;4.468;2022-09-09T07:23:33;7.95;;;3.97;;
69527;SDS011;57136;51.986;4.468;2022-09-09T07:26:00;8.50;;;3.90;;
69527;SDS011;57136;51.986;4.468;2022-09-09T07:28:26;10.52;;;3.95;;
69527;SDS011;57136;51.986;4.468;2022-09-09T07:30:54;9.45;;;4.30;;
69527;SDS011;57136;51.986;4.468;2022-09-09T07:33:24;8.40;;;4.03;;
69527;SDS011;57136;51.986;4.468;2022-09-09T07:35:50;11.70;;;4.15;;
69527;SDS011;57136;51.986;4.468;2022-09-09T07:38:16;6.90;;;3.95;;
69527;SDS011;57136;51.986;4.468;2022-09-09T07:40:42;8.32;;;4.43;;
69527;SDS011;57136;51.986;4.468;2022-09-09T07:43:08;8.45;;;4.28;;
69527;SDS011;57136;51.986;4.468;2022-09-09T07:45:34;8.05;;;3.92;;
69527;SDS011;57136;51.986;4.468;2022-09-09T07:48:00;9.35;;;4.22;;
69527;SDS011;57136;51.986;4.468;2022-09-09T07:50:26;9.55;;;3.95;;
69527;SDS011;57136;51.986;4.468;2022-09-09T07:52:52;8.15;;;3.67;;
69527;SDS011;57136;51.986;4.468;2022-09-09T07:55:20;8.48;;;3.50;;
69527;SDS011;57136;51.986;4.468;2022-09-09T07:57:46;9.30;;;3.53;;
69527;SDS011;57136;51.986;4.468;2022-09-09T08:00:11;10.77;;;4.28;;
69527;SDS011;57136;51.986;4.468;2022-09-09T08:02:39;7.70;;;3.45;;
69527;SDS011;57136;51.986;4.468;2022-09-09T08:05:04;9.02;;;3.65;;
69527;SDS011;57136;51.986;4.468;2022-09-09T08:07:31;8.50;;;2.92;;
69527;SDS011;57136;51.986;4.468;2022-09-09T08:09:56;10.93;;;3.95;;
69527;SDS011;57136;51.986;4.468;2022-09-09T08:12:22;6.60;;;2.53;;
69527;SDS011;57136;51.986;4.468;2022-09-09T08:14:48;6.85;;;3.72;;
69527;SDS011;57136;51.986;4.468;2022-09-09T08:17:13;8.65;;;3.38;;
69527;SDS011;57136;51.986;4.468;2022-09-09T08:19:39;9.98;;;3.13;;
69527;SDS011;57136;51.986;4.468;2022-09-09T08:22:04;10.52;;;3.35;;
69527;SDS011;57136;51.986;4.468;2022-09-09T08:24:29;9.07;;;3.42;;
69527;SDS011;57136;51.986;4.468;2022-09-09T08:26:55;5.35;;;2.80;;
69527;SDS011;57136;51.986;4.468;2022-09-09T08:29:21;7.13;;;2.90;;
69527;SDS011;57136;51.986;4.468;2022-09-09T08:31:49;8.90;;;3.85;;
69527;SDS011;57136;51.986;4.468;2022-09-09T08:34:19;9.95;;;3.63;;
69527;SDS011;57136;51.986;4.468;2022-09-09T08:36:46;5.45;;;3.10;;
69527;SDS011;57136;51.986;4.468;2022-09-09T08:39:16;12.43;;;3.30;;
69527;SDS011;57136;51.986;4.468;2022-09-09T08:52:54;8.93;;;3.40;;
69527;SDS011;57136;51.986;4.468;2022-09-09T09:01:17;12.93;;;4.05;;
69527;SDS011;57136;51.986;4.468;2022-09-09T09:11:39;7.25;;;3.20;;
69527;SDS011;57136;51.986;4.468;2022-09-09T09:14:09;5.35;;;2.85;;
69527;SDS011;57136;51.986;4.468;2022-09-09T09:16:51;7.13;;;3.50;;
69527;SDS011;57136;51.986;4.468;2022-09-09T09:19:21;6.60;;;3.15;;
69527;SDS011;57136;51.986;4.468;2022-09-09T09:21:53;8.63;;;3.42;;
69527;SDS011;57136;51.986;4.468;2022-09-09T09:24:20;6.55;;;2.90;;
69527;SDS011;57136;51.986;4.468;2022-09-09T09:26:52;8.02;;;3.30;;
69527;SDS011;57136;51.986;4.468;2022-09-09T09:29:18;8.27;;;3.35;;
69527;SDS011;57136;51.986;4.468;2022-09-09T09:31:52;8.38;;;2.95;;
69527;SDS011;57136;51.986;4.468;2022-09-09T09:34:19;10.35;;;3.72;;
69527;SDS011;57136;51.986;4.468;2022-09-09T09:36:46;9.85;;;3.75;;
69527;SDS011;57136;51.986;4.468;2022-09-09T09:39:22;6.18;;;3.40;;
69527;SDS011;57136;51.986;4.468;2022-09-09T09:41:55;11.77;;;4.22;;
69527;SDS011;57136;51.986;4.468;2022-09-09T09:44:26;10.07;;;3.63;;
69527;SDS011;57136;51.986;4.468;2022-09-09T09:47:08;9.15;;;4.07;;
69527;SDS011;57136;51.986;4.468;2022-09-09T09:49:38;11.57;;;3.95;;
69527;SDS011;57136;51.986;4.468;2022-09-09T09:52:05;6.88;;;3.72;;
69527;SDS011;57136;51.986;4.468;2022-09-09T09:54:38;9.10;;;3.45;;
69527;SDS011;57136;51.986;4.468;2022-09-09T09:57:10;8.93;;;3.45;;
69527;SDS011;57136;51.986;4.468;2022-09-09T09:59:37;7.75;;;3.53;;
69527;SDS011;57136;51.986;4.468;2022-09-09T10:02:13;5.90;;;3.22;;
69527;SDS011;57136;51.986;4.468;2022-09-09T10:04:40;10.27;;;3.90;;
69527;SDS011;57136;51.986;4.468;2022-09-09T10:07:12;12.02;;;4.40;;
69527;SDS011;57136;51.986;4.468;2022-09-09T10:09:43;7.82;;;3.10;;
69527;SDS011;57136;51.986;4.468;2022-09-09T10:17:43;7.68;;;4.63;;
69527;SDS011;57136;51.986;4.468;2022-09-09T10:29:22;7.30;;;4.78;;
69527;SDS011;57136;51.986;4.468;2022-09-09T10:34:52;5.88;;;3.80;;
69527;SDS011;57136;51.986;4.468;2022-09-09T10:37:35;6.95;;;3.63;;
69527;SDS011;57136;51.986;4.468;2022-09-09T10:42:56;7.93;;;3.92;;
69527;SDS011;57136;51.986;4.468;2022-09-09T10:45:32;6.40;;;3.28;;
69527;SDS011;57136;51.986;4.468;2022-09-09T10:56:18;5.15;;;2.67;;
69527;SDS011;57136;51.986;4.468;2022-09-09T11:01:47;5.50;;;2.60;;
69527;SDS011;57136;51.986;4.468;2022-09-09T11:07:07;8.40;;;2.75;;
69527;SDS011;57136;51.986;4.468;2022-09-09T11:09:38;4.97;;;2.40;;
69527;SDS011;57136;51.986;4.468;2022-09-09T11:12:12;8.02;;;3.05;;
69527;SDS011;57136;51.986;4.468;2022-09-09T11:14:43;4.47;;;2.13;;
69527;SDS011;57136;51.986;4.468;2022-09-09T11:19:46;4.85;;;2.78;;
69527;SDS011;57136;51.986;4.468;2022-09-09T11:27:37;7.15;;;2.83;;
69527;SDS011;57136;51.986;4.468;2022-09-09T11:35:46;5.43;;;2.42;;
69527;SDS011;57136;51.986;4.468;2022-09-09T11:41:12;7.45;;;2.92;;
69527;SDS011;57136;51.986;4.468;2022-09-09T11:43:43;7.00;;;2.83;;
69527;SDS011;57136;51.986;4.468;2022-09-09T11:46:11;7.72;;;3.85;;
69527;SDS011;57136;51.986;4.468;2022-09-09T11:48:41;6.93;;;3.42;;
69527;SDS011;57136;51.986;4.468;2022-09-09T11:53:52;8.25;;;4.15;;
69527;SDS011;57136;51.986;4.468;2022-09-09T11:58:56;8.60;;;4.60;;
69527;SDS011;57136;51.986;4.468;2022-09-09T12:01:28;8.48;;;4.45;;
69527;SDS011;57136;51.986;4.468;2022-09-09T12:06:32;9.95;;;5.03;;
69527;SDS011;57136;51.986;4.468;2022-09-09T12:11:42;8.15;;;5.85;;
69527;SDS011;57136;51.986;4.468;2022-09-09T12:14:18;9.60;;;5.93;;
69527;SDS011;57136;51.986;4.468;2022-09-09T12:16:46;9.73;;;5.13;;
69527;SDS011;57136;51.986;4.468;2022-09-09T12:19:22;10.35;;;5.53;;
69527;SDS011;57136;51.986;4.468;2022-09-09T12:21:53;9.20;;;4.90;;
69527;SDS011;57136;51.986;4.468;2022-09-09T12:24:49;9.43;;;4.85;;
69527;SDS011;57136;51.986;4.468;2022-09-09T12:27:40;6.00;;;4.13;;
69527;SDS011;57136;51.986;4.468;2022-09-09T12:30:14;6.43;;;3.78;;
69527;SDS011;57136;51.986;4.468;2022-09-09T12:32:40;9.05;;;4.38;;
69527;SDS011;57136;51.986;4.468;2022-09-09T12:35:10;7.00;;;4.57;;
69527;SDS011;57136;51.986;4.468;2022-09-09T12:37:45;9.98;;;4.80;;
69527;SDS011;57136;51.986;4.468;2022-09-09T12:42:52;7.28;;;4.80;;
69527;SDS011;57136;51.986;4.468;2022-09-09T12:45:24;7.20;;;4.97;;
69527;SDS011;57136;51.986;4.468;2022-09-09T12:48:08;6.03;;;4.07;;
69527;SDS011;57136;51.986;4.468;2022-09-09T12:53:05;7.13;;;4.43;;
69527;SDS011;57136;51.986;4.468;2022-09-09T12:55:35;4.68;;;4.20;;
69527;SDS011;57136;51.986;4.468;2022-09-09T12:58:02;10.13;;;4.85;;
69527;SDS011;57136;51.986;4.468;2022-09-09T13:00:30;7.47;;;4.80;;
69527;SDS011;57136;51.986;4.468;2022-09-09T13:02:58;6.55;;;3.58;;
69527;SDS011;57136;51.986;4.468;2022-09-09T13:05:27;4.00;;;3.08;;
69527;SDS011;57136;51.986;4.468;2022-09-09T13:08:02;3.97;;;3.58;;
69527;SDS011;57136;51.986;4.468;2022-09-09T13:10:31;5.68;;;3.38;;
69527;SDS011;57136;51.986;4.468;2022-09-09T13:13:00;2.88;;;2.47;;
69527;SDS011;57136;51.986;4.468;2022-09-09T13:15:27;7.97;;;2.58;;
69527;SDS011;57136;51.986;4.468;2022-09-09T13:17:55;5.50;;;2.35;;
69527;SDS011;57136;51.986;4.468;2022-09-09T13:20:23;5.82;;;2.30;;
69527;SDS011;57136;51.986;4.468;2022-09-09T13:22:50;5.20;;;1.83;;
69527;SDS011;57136;51.986;4.468;2022-09-09T13:25:19;2.70;;;1.70;;
69527;SDS011;57136;51.986;4.468;2022-09-09T13:28:35;4.15;;;1.70;;
69527;SDS011;57136;51.986;4.468;2022-09-09T13:30:54;3.03;;;1.65;;
69527;SDS011;57136;51.986;4.468;2022-09-09T13:33:24;5.90;;;1.83;;
69527;SDS011;57136;51.986;4.468;2022-09-09T13:36:02;4.78;;;2.13;;
69527;SDS011;57136;51.986;4.468;2022-09-09T13:38:31;7.00;;;1.88;;
69527;SDS011;57136;51.986;4.468;2022-09-09T13:43:44;5.28;;;2.17;;
69527;SDS011;57136;51.986;4.468;2022-09-09T13:46:26;5.63;;;2.80;;
69527;SDS011;57136;51.986;4.468;2022-09-09T13:54:08;7.95;;;2.97;;
69527;SDS011;57136;51.986;4.468;2022-09-09T13:56:35;5.70;;;2.90;;
69527;SDS011;57136;51.986;4.468;2022-09-09T13:59:05;5.00;;;2.45;;
69527;SDS011;57136;51.986;4.468;2022-09-09T14:01:34;5.22;;;2.00;;
69527;SDS011;57136;51.986;4.468;2022-09-09T14:04:00;4.53;;;2.15;;
69527;SDS011;57136;51.986;4.468;2022-09-09T14:06:25;2.95;;;1.80;;
69527;SDS011;57136;51.986;4.468;2022-09-09T14:08:50;3.15;;;2.10;;
69527;SDS011;57136;51.986;4.468;2022-09-09T14:11:16;4.07;;;2.03;;
69527;SDS011;57136;51.986;4.468;2022-09-09T14:13:42;4.80;;;1.40;;
69527;SDS011;57136;51.986;4.468;2022-09-09T14:16:07;1.85;;;1.45;;
69527;SDS011;57136;51.986;4.468;2022-09-09T14:18:33;3.25;;;2.10;;
69527;SDS011;57136;51.986;4.468;2022-09-09T14:20:59;5.63;;;2.42;;
69527;SDS011;57136;51.986;4.468;2022-09-09T14:23:24;5.10;;;2.28;;
69527;SDS011;57136;51.986;4.468;2022-09-09T14:25:50;3.60;;;1.80;;
69527;SDS011;57136;51.986;4.468;2022-09-09T14:28:17;3.65;;;1.88;;
69527;SDS011;57136;51.986;4.468;2022-09-09T14:30:43;5.55;;;1.70;;
69527;SDS011;57136;51.986;4.468;2022-09-09T14:33:11;5.05;;;2.08;;
69527;SDS011;57136;51.986;4.468;2022-09-09T14:35:37;5.65;;;2.40;;
69527;SDS011;57136;51.986;4.468;2022-09-09T14:38:03;7.38;;;2.17;;
69527;SDS011;57136;51.986;4.468;2022-09-09T14:40:29;9.43;;;2.03;;
69527;SDS011;57136;51.986;4.468;2022-09-09T14:42:55;7.88;;;2.17;;
69527;SDS011;57136;51.986;4.468;2022-09-09T14:45:21;4.80;;;1.63;;
69527;SDS011;57136;51.986;4.468;2022-09-09T14:47:49;5.80;;;1.63;;
69527;SDS011;57136;51.986;4.468;2022-09-09T14:50:15;6.03;;;1.63;;
69527;SDS011;57136;51.986;4.468;2022-09-09T14:52:41;3.92;;;1.45;;
69527;SDS011;57136;51.986;4.468;2022-09-09T14:55:06;3.38;;;1.35;;
69527;SDS011;57136;51.986;4.468;2022-09-09T14:57:32;6.20;;;1.40;;
69527;SDS011;57136;51.986;4.468;2022-09-09T14:59:57;4.68;;;1.85;;
69527;SDS011;57136;51.986;4.468;2022-09-09T15:02:23;7.15;;;1.63;;
69527;SDS011;57136;51.986;4.468;2022-09-09T15:04:48;7.28;;;1.75;;
69527;SDS011;57136;51.986;4.468;2022-09-09T15:07:15;8.98;;;1.80;;
69527;SDS011;57136;51.986;4.468;2022-09-09T15:09:41;3.92;;;1.45;;
69527;SDS011;57136;51.986;4.468;2022-09-09T15:12:06;6.70;;;1.55;;
69527;SDS011;57136;51.986;4.468;2022-09-09T15:14:32;4.10;;;1.48;;
69527;SDS011;57136;51.986;4.468;2022-09-09T15:16:57;5.63;;;1.10;;
69527;SDS011;57136;51.986;4.468;2022-09-09T15:19:23;6.13;;;1.50;;
69527;SDS011;57136;51.986;4.468;2022-09-09T15:21:48;4.07;;;1.33;;
69527;SDS011;57136;51.986;4.468;2022-09-09T15:24:14;4.38;;;1.40;;
69527;SDS011;57136;51.986;4.468;2022-09-09T15:26:39;5.40;;;1.50;;
69527;SDS011;57136;51.986;4.468;2022-09-09T15:29:05;6.15;;;1.67;;
69527;SDS011;57136;51.986;4.468;2022-09-09T15:31:32;2.95;;;1.48;;
69527;SDS011;57136;51.986;4.468;2022-09-09T15:33:59;5.25;;;1.98;;
69527;SDS011;57136;51.986;4.468;2022-09-09T15:36:37;5.75;;;2.08;;
69527;SDS011;57136;51.986;4.468;2022-09-09T15:39:07;7.57;;;2.20;;
69527;SDS011;57136;51.986;4.468;2022-09-09T15:41:41;5.43;;;2.30;;
69527;SDS011;57136;51.986;4.468;2022-09-09T15:44:07;6.22;;;3.28;;
69527;SDS011;57136;51.986;4.468;2022-09-09T15:46:35;6.82;;;3.63;;
69527;SDS011;57136;51.986;4.468;2022-09-09T15:49:13;7.55;;;3.97;;
69527;SDS011;57136;51.986;4.468;2022-09-09T15:51:41;6.75;;;4.18;;
69527;SDS011;57136;51.986;4.468;2022-09-09T15:54:09;8.63;;;4.45;;
69527;SDS011;57136;51.986;4.468;2022-09-09T15:56:36;6.00;;;4.10;;
69527;SDS011;57136;51.986;4.468;2022-09-09T15:59:02;9.95;;;4.95;;
69527;SDS011;57136;51.986;4.468;2022-09-09T16:01:28;9.48;;;5.00;;
69527;SDS011;57136;51.986;4.468;2022-09-09T16:03:55;13.15;;;6.43;;
69527;SDS011;57136;51.986;4.468;2022-09-09T16:06:21;10.52;;;6.55;;
69527;SDS011;57136;51.986;4.468;2022-09-09T16:08:49;8.95;;;6.68;;
69527;SDS011;57136;51.986;4.468;2022-09-09T16:11:23;10.48;;;6.63;;
69527;SDS011;57136;51.986;4.468;2022-09-09T16:13:54;10.73;;;5.78;;
69527;SDS011;57136;51.986;4.468;2022-09-09T16:16:21;9.98;;;5.60;;
69527;SDS011;57136;51.986;4.468;2022-09-09T16:18:53;10.90;;;6.30;;
69527;SDS011;57136;51.986;4.468;2022-09-09T16:21:24;12.82;;;7.07;;
69527;SDS011;57136;51.986;4.468;2022-09-09T16:23:54;7.82;;;7.03;;
69527;SDS011;57136;51.986;4.468;2022-09-09T16:26:21;9.40;;;8.43;;
69527;SDS011;57136;51.986;4.468;2022-09-09T16:28:47;9.57;;;7.95;;
69527;SDS011;57136;51.986;4.468;2022-09-09T16:31:14;11.90;;;6.40;;
69527;SDS011;57136;51.986;4.468;2022-09-09T16:33:43;11.15;;;6.70;;
69527;SDS011;57136;51.986;4.468;2022-09-09T16:36:10;11.13;;;6.45;;
69527;SDS011;57136;51.986;4.468;2022-09-09T16:38:38;7.32;;;4.60;;
69527;SDS011;57136;51.986;4.468;2022-09-09T16:41:04;6.28;;;4.72;;
69527;SDS011;57136;51.986;4.468;2022-09-09T16:43:31;5.75;;;4.07;;
69527;SDS011;57136;51.986;4.468;2022-09-09T16:45:57;7.45;;;4.20;;
69527;SDS011;57136;51.986;4.468;2022-09-09T16:48:25;7.25;;;3.72;;
69527;SDS011;57136;51.986;4.468;2022-09-09T16:50:51;6.45;;;3.08;;
69527;SDS011;57136;51.986;4.468;2022-09-09T16:53:17;6.07;;;3.78;;
69527;SDS011;57136;51.986;4.468;2022-09-09T16:55:42;6.70;;;3.15;;
69527;SDS011;57136;51.986;4.468;2022-09-09T16:58:07;4.35;;;3.22;;
69527;SDS011;57136;51.986;4.468;2022-09-09T17:00:35;7.57;;;3.63;;
69527;SDS011;57136;51.986;4.468;2022-09-09T17:03:01;5.72;;;4.22;;
69527;SDS011;57136;51.986;4.468;2022-09-09T17:05:27;6.93;;;4.68;;
69527;SDS011;57136;51.986;4.468;2022-09-09T17:07:53;8.85;;;5.07;;
69527;SDS011;57136;51.986;4.468;2022-09-09T17:10:19;5.97;;;4.45;;
69527;SDS011;57136;51.986;4.468;2022-09-09T17:12:44;9.00;;;4.80;;
69527;SDS011;57136;51.986;4.468;2022-09-09T17:15:11;8.68;;;4.85;;
69527;SDS011;57136;51.986;4.468;2022-09-09T17:17:36;7.00;;;4.60;;